createdAt,value
2023-07-28T00:02:12.340Z,1.27
2023-07-28T00:05:15.189Z,1.43
2023-07-28T00:08:17.663Z,1.00
2023-07-28T00:11:20.318Z,1.30
2023-07-28T00:14:22.703Z,1.00
2023-07-28T00:17:25.523Z,1.00
2023-07-28T00:20:27.941Z,1.17
2023-07-28T00:23:30.651Z,1.05
2023-07-28T00:26:33.254Z,0.90
2023-07-28T00:29:36.136Z,1.37
2023-07-28T00:32:38.613Z,1.37
2023-07-28T00:35:41.347Z,1.30
2023-07-28T00:38:43.690Z,1.02
2023-07-28T00:41:46.644Z,1.30
2023-07-28T00:44:49.000Z,1.30
2023-07-28T00:47:52.203Z,1.70
2023-07-28T00:50:55.490Z,1.37
2023-07-28T00:54:00.409Z,1.08
2023-07-28T00:57:03.268Z,1.15
2023-07-28T01:00:06.875Z,1.52
2023-07-28T01:03:09.319Z,1.47
2023-07-28T01:06:29.016Z,1.40
2023-07-28T01:09:41.231Z,1.30
2023-07-28T01:12:45.839Z,1.35
2023-07-28T01:15:48.453Z,1.17
2023-07-28T01:18:51.257Z,1.60
2023-07-28T01:21:58.488Z,1.60
2023-07-28T01:25:31.097Z,1.20
2023-07-28T01:28:35.347Z,1.40
2023-07-28T01:31:38.105Z,1.33
2023-07-28T01:34:40.534Z,1.27
2023-07-28T01:37:43.213Z,1.50
2023-07-28T01:40:45.642Z,1.23
2023-07-28T01:43:48.362Z,1.55
2023-07-28T01:46:50.692Z,1.00
2023-07-28T01:49:54.951Z,1.50
2023-07-28T01:52:57.643Z,1.20
2023-07-28T01:56:01.856Z,1.67
2023-07-28T01:59:06.340Z,1.60
2023-07-28T02:02:10.598Z,1.45
2023-07-28T02:05:13.253Z,1.60
2023-07-28T02:08:15.688Z,1.30
2023-07-28T02:11:18.326Z,1.40
2023-07-28T02:14:20.767Z,1.17
2023-07-28T02:17:23.482Z,1.52
2023-07-28T02:20:25.923Z,1.67
2023-07-28T02:23:28.625Z,1.33
2023-07-28T02:26:31.094Z,1.23
2023-07-28T02:29:33.734Z,1.60
2023-07-28T02:32:37.853Z,1.35
2023-07-28T02:35:40.570Z,1.53
2023-07-28T02:38:42.964Z,1.60
2023-07-28T02:41:45.591Z,1.75
2023-07-28T02:44:47.998Z,1.50
2023-07-28T02:47:50.639Z,1.80
2023-07-28T02:50:53.525Z,2.00
2023-07-28T02:53:56.201Z,1.47
2023-07-28T02:57:00.418Z,1.80
2023-07-28T03:00:04.121Z,2.70
2023-07-28T03:03:08.683Z,2.00
2023-07-28T03:06:12.188Z,1.80
2023-07-28T03:09:17.340Z,1.80
2023-07-28T03:12:20.775Z,2.00
2023-07-28T03:15:23.683Z,1.73
2023-07-28T03:18:26.353Z,1.95
2023-07-28T03:21:31.398Z,1.87
2023-07-28T03:24:34.094Z,1.90
2023-07-28T03:30:40.002Z,1.92
2023-07-28T03:33:43.856Z,2.08
2023-07-28T03:36:47.101Z,1.97
2023-07-28T03:39:51.999Z,1.70
2023-07-28T03:42:55.822Z,2.30
2023-07-28T03:45:58.197Z,1.62
2023-07-28T03:49:01.266Z,1.90
2023-07-28T03:52:04.786Z,1.80
2023-07-28T03:55:08.389Z,1.70
2023-07-28T03:58:10.834Z,1.70
2023-07-28T04:01:13.590Z,1.90
2023-07-28T04:04:16.445Z,2.05
2023-07-28T04:07:18.803Z,1.97
2023-07-28T04:10:22.348Z,1.63
2023-07-28T04:13:24.708Z,1.67
2023-07-28T04:16:27.425Z,1.52
2023-07-28T04:19:30.877Z,1.70
2023-07-28T04:22:33.585Z,1.90
2023-07-28T04:25:36.161Z,1.90
2023-07-28T04:28:38.915Z,1.65
2023-07-28T04:31:41.830Z,1.85
2023-07-28T04:34:45.035Z,1.45
2023-07-28T04:37:47.820Z,1.83
2023-07-28T04:40:51.095Z,1.80
2023-07-28T04:43:54.020Z,1.45
2023-07-28T04:46:56.782Z,1.80
2023-07-28T04:49:59.514Z,1.70
2023-07-28T04:53:04.530Z,1.60
2023-07-28T04:56:09.229Z,1.60
2023-07-28T04:59:11.882Z,1.65
2023-07-28T05:02:14.275Z,1.55
2023-07-28T05:05:17.860Z,1.67
2023-07-28T05:08:20.484Z,1.77
2023-07-28T05:11:23.200Z,2.10
2023-07-28T05:14:25.687Z,1.60
2023-07-28T05:17:28.449Z,1.75
2023-07-28T05:20:31.824Z,1.65
2023-07-28T05:23:34.468Z,1.63
2023-07-28T05:26:36.932Z,1.37
2023-07-28T05:29:39.819Z,1.60
2023-07-28T05:32:42.346Z,1.48
2023-07-28T05:35:45.350Z,1.58
2023-07-28T05:38:47.732Z,1.73
2023-07-28T05:41:50.371Z,1.50
2023-07-28T05:44:54.116Z,1.70
2023-07-28T05:47:56.979Z,1.50
2023-07-28T05:50:59.362Z,1.77
2023-07-28T05:54:02.728Z,1.30
2023-07-28T05:57:07.380Z,1.50
2023-07-28T06:00:11.173Z,1.55
2023-07-28T06:03:17.362Z,1.70
2023-07-28T06:06:23.234Z,1.70
2023-07-28T06:09:25.600Z,1.67
2023-07-28T06:12:28.439Z,2.00
2023-07-28T06:15:30.928Z,1.60
2023-07-28T06:18:33.700Z,1.80
2023-07-28T06:21:36.986Z,1.60
2023-07-28T06:24:39.897Z,1.80
2023-07-28T06:27:43.889Z,1.83
2023-07-28T06:30:46.886Z,1.40
2023-07-28T06:33:49.372Z,1.75
2023-07-28T06:36:53.030Z,1.45
2023-07-28T06:39:56.927Z,1.50
2023-07-28T06:42:59.675Z,1.60
2023-07-28T06:46:02.201Z,1.80
2023-07-28T06:49:05.061Z,1.50
2023-07-28T06:52:07.818Z,1.77
2023-07-28T06:55:10.892Z,1.83
2023-07-28T06:58:13.652Z,1.30
2023-07-28T07:01:16.616Z,1.15
2023-07-28T07:04:20.212Z,1.27
2023-07-28T07:07:22.880Z,1.45
2023-07-28T07:10:26.209Z,1.50
2023-07-28T07:13:28.841Z,1.93
2023-07-28T07:16:32.241Z,1.58
2023-07-28T07:19:34.957Z,2.00
2023-07-28T07:22:37.934Z,1.12
2023-07-28T07:25:40.921Z,1.70
2023-07-28T07:28:44.574Z,1.67
2023-07-28T07:31:47.334Z,1.55
2023-07-28T07:34:49.705Z,1.35
2023-07-28T07:37:52.418Z,1.45
2023-07-28T07:40:54.776Z,1.30
2023-07-28T07:43:57.973Z,1.33
2023-07-28T07:47:02.275Z,1.45
2023-07-28T07:50:06.508Z,1.30
2023-07-28T07:53:08.957Z,1.23
2023-07-28T07:56:11.649Z,1.87
2023-07-28T07:59:14.833Z,1.40
2023-07-28T08:02:17.517Z,1.73
2023-07-28T08:05:20.146Z,1.20
2023-07-28T08:08:22.639Z,1.15
2023-07-28T08:11:25.255Z,1.50
2023-07-28T08:14:27.662Z,1.07
2023-07-28T08:17:30.328Z,1.30
2023-07-28T08:20:32.764Z,1.27
2023-07-28T08:23:35.370Z,1.20
2023-07-28T08:26:37.796Z,1.30
2023-07-28T08:29:40.467Z,1.50
2023-07-28T08:32:43.971Z,1.20
2023-07-28T08:35:46.722Z,1.30
2023-07-28T08:38:50.013Z,1.48
2023-07-28T08:42:02.312Z,1.30
2023-07-28T08:45:09.455Z,1.40
2023-07-28T08:48:12.427Z,1.40
2023-07-28T08:51:15.069Z,1.30
2023-07-28T08:54:18.056Z,1.20
2023-07-28T08:57:20.557Z,1.50
2023-07-28T09:00:26.037Z,0.80
2023-07-28T09:03:29.042Z,0.95
2023-07-28T09:06:34.664Z,1.40
2023-07-28T09:09:38.118Z,1.37
2023-07-28T09:12:49.919Z,1.30
2023-07-28T09:15:52.688Z,1.23
2023-07-28T09:19:08.526Z,1.12
2023-07-28T09:22:14.654Z,1.08
2023-07-28T09:25:18.293Z,1.10
2023-07-28T09:28:20.910Z,1.40
2023-07-28T09:31:31.750Z,1.20
2023-07-28T09:34:34.228Z,1.25
2023-07-28T09:37:40.337Z,1.02
2023-07-28T09:40:43.043Z,1.05
2023-07-28T09:43:45.973Z,1.50
2023-07-28T09:46:53.347Z,1.13
2023-07-28T09:49:56.541Z,1.60
2023-07-28T09:53:03.095Z,1.25
2023-07-28T09:56:05.997Z,1.05
2023-07-28T09:59:13.095Z,1.70
2023-07-28T10:02:16.086Z,1.47
2023-07-28T10:05:18.826Z,1.23
2023-07-28T10:08:22.277Z,1.80
2023-07-28T10:11:27.688Z,1.50
2023-07-28T10:14:39.286Z,1.40
2023-07-28T10:17:48.999Z,1.23
2023-07-28T10:20:52.422Z,1.20
2023-07-28T10:23:59.186Z,1.23
2023-07-28T10:27:01.906Z,1.42
2023-07-28T10:30:06.915Z,1.27
2023-07-28T10:33:27.566Z,1.10
2023-07-28T10:36:30.992Z,1.42
2023-07-28T10:39:37.185Z,1.10
2023-07-28T10:42:41.823Z,1.17
2023-07-28T10:45:45.872Z,1.13
2023-07-28T10:48:50.923Z,1.30
2023-07-28T10:51:53.385Z,1.10
2023-07-28T10:54:56.980Z,1.30
2023-07-28T10:57:59.636Z,1.50
2023-07-28T11:01:03.142Z,1.50
2023-07-28T11:04:20.009Z,1.27
2023-07-28T11:07:22.721Z,1.50
2023-07-28T11:10:25.905Z,1.45
2023-07-28T11:13:40.566Z,1.30
2023-07-28T11:16:43.911Z,1.00
2023-07-28T11:19:46.831Z,1.43
2023-07-28T11:22:58.245Z,1.45
2023-07-28T11:26:01.036Z,1.40
2023-07-28T11:29:04.567Z,1.40
2023-07-28T11:32:07.772Z,1.40
2023-07-28T11:35:16.331Z,1.40
2023-07-28T11:38:19.928Z,1.35
2023-07-28T11:41:22.601Z,1.27
2023-07-28T11:44:25.607Z,1.10
2023-07-28T11:47:28.080Z,1.30
2023-07-28T11:50:35.394Z,1.10
2023-07-28T11:53:38.531Z,1.48
2023-07-28T11:56:44.981Z,1.27
2023-07-28T11:59:47.394Z,1.48
2023-07-28T12:02:50.229Z,1.50
2023-07-28T12:09:14.444Z,1.30
2023-07-28T12:21:38.709Z,1.43
2023-07-28T12:24:41.421Z,1.35
2023-07-28T12:27:45.048Z,1.30
2023-07-28T12:30:50.742Z,1.17
2023-07-28T12:34:02.890Z,1.30
2023-07-28T12:37:11.514Z,1.43
2023-07-28T12:46:25.691Z,1.25
2023-07-28T12:49:30.166Z,1.50
2023-07-28T12:53:08.090Z,1.70
2023-07-28T13:02:07.206Z,1.10
2023-07-28T13:05:11.525Z,1.52
2023-07-28T13:08:14.215Z,1.20
2023-07-28T13:11:18.246Z,1.60
2023-07-28T13:14:21.130Z,1.27
2023-07-28T13:17:23.548Z,1.25
2023-07-28T13:20:27.188Z,1.60
2023-07-28T13:23:29.626Z,1.40
2023-07-28T13:26:32.253Z,1.40
2023-07-28T13:29:34.663Z,1.37
2023-07-28T13:32:37.357Z,1.00
2023-07-28T13:35:39.765Z,1.63
2023-07-28T13:38:42.503Z,1.00
2023-07-28T13:41:44.952Z,1.40
2023-07-28T13:44:57.935Z,1.20
2023-07-28T13:48:01.460Z,1.08
2023-07-28T13:51:04.215Z,1.73
2023-07-28T13:57:12.335Z,1.10
2023-07-28T14:00:14.910Z,1.12
2023-07-28T14:03:17.745Z,1.40
2023-07-28T14:06:20.598Z,1.10
2023-07-28T14:09:23.301Z,1.13
2023-07-28T14:12:25.718Z,1.52
2023-07-28T14:15:28.378Z,1.40
2023-07-28T14:18:30.689Z,1.17
2023-07-28T14:21:33.831Z,1.33
2023-07-28T14:24:37.075Z,1.60
2023-07-28T14:27:39.753Z,1.55
2023-07-28T14:30:44.774Z,1.10
2023-07-28T14:33:47.636Z,1.30
2023-07-28T14:36:50.159Z,1.20
2023-07-28T14:39:52.863Z,1.10
2023-07-28T14:42:55.340Z,1.00
2023-07-28T14:45:58.672Z,1.37
2023-07-28T14:49:01.273Z,1.20
2023-07-28T14:52:04.212Z,1.20
2023-07-28T14:55:06.829Z,1.30
2023-07-28T14:58:09.625Z,1.40
2023-07-28T15:01:12.389Z,1.50
2023-07-28T15:04:16.709Z,1.17
2023-07-28T15:07:20.255Z,1.60
2023-07-28T15:10:23.072Z,1.43
2023-07-28T15:13:25.772Z,1.17
2023-07-28T15:16:28.654Z,1.15
2023-07-28T15:19:31.084Z,1.35
2023-07-28T15:22:34.003Z,1.43
2023-07-28T15:25:36.522Z,1.60
2023-07-28T15:28:39.217Z,1.50
2023-07-28T15:31:41.700Z,1.40
2023-07-28T15:34:44.307Z,1.50
2023-07-28T15:37:46.763Z,1.37
2023-07-28T15:40:49.550Z,1.63
2023-07-28T15:43:51.921Z,1.40
2023-07-28T15:46:54.504Z,1.42
2023-07-28T15:49:56.899Z,1.45
2023-07-28T15:52:59.650Z,1.65
2023-07-28T15:56:02.151Z,1.63
2023-07-28T15:59:04.755Z,1.42
2023-07-28T16:02:07.648Z,2.15
2023-07-28T16:05:11.105Z,1.75
2023-07-28T16:08:13.578Z,1.83
2023-07-28T16:11:17.176Z,1.57
2023-07-28T16:14:19.697Z,1.45
2023-07-28T16:17:22.729Z,1.48
2023-07-28T16:20:25.299Z,1.37
2023-07-28T16:23:28.029Z,1.60
2023-07-28T16:26:30.542Z,1.40
2023-07-28T16:29:33.238Z,1.70
2023-07-28T16:32:36.873Z,1.48
2023-07-28T16:35:39.637Z,1.55
2023-07-28T16:38:42.084Z,1.50
2023-07-28T16:41:45.479Z,1.70
2023-07-28T16:44:48.027Z,1.48
2023-07-28T16:47:50.824Z,1.48
2023-07-28T16:50:53.256Z,1.35
2023-07-28T16:53:56.016Z,1.60
2023-07-28T16:56:59.205Z,1.50
2023-07-28T17:00:01.877Z,1.65
2023-07-28T17:03:07.113Z,1.10
2023-07-28T17:06:10.026Z,1.40
2023-07-28T17:09:18.016Z,1.60
2023-07-28T17:12:20.677Z,1.20
2023-07-28T17:15:34.249Z,1.58
2023-07-28T17:18:41.495Z,1.45
2023-07-28T17:21:44.828Z,1.48
2023-07-28T17:24:51.382Z,1.40
2023-07-28T17:27:53.963Z,1.43
2023-07-28T17:30:56.724Z,1.40
2023-07-28T17:33:59.917Z,1.60
2023-07-28T17:37:02.717Z,1.77
2023-07-28T17:40:05.747Z,1.73
2023-07-28T17:43:08.609Z,1.77
2023-07-28T17:46:15.062Z,1.52
2023-07-28T17:49:17.733Z,1.50
2023-07-28T17:52:20.531Z,1.67
2023-07-28T17:55:23.421Z,1.30
2023-07-28T17:58:25.998Z,1.23
2023-07-28T18:01:28.784Z,1.40
2023-07-28T18:04:31.684Z,1.58
2023-07-28T18:07:34.076Z,2.08
2023-07-28T18:10:37.173Z,1.30
2023-07-28T18:13:39.534Z,1.60
2023-07-28T18:16:42.270Z,1.42
2023-07-28T18:19:44.801Z,1.70
2023-07-28T18:22:47.644Z,1.60
2023-07-28T18:25:50.032Z,1.70
2023-07-28T18:28:52.673Z,1.60
2023-07-28T18:31:55.005Z,1.27
2023-07-28T18:34:57.719Z,1.40
2023-07-28T18:38:00.116Z,1.58
2023-07-28T18:41:02.753Z,2.10
2023-07-28T18:44:05.453Z,1.70
2023-07-28T18:47:08.269Z,1.70
2023-07-28T18:50:10.959Z,1.67
2023-07-28T18:53:14.043Z,1.60
2023-07-28T18:56:16.414Z,1.70
2023-07-28T18:59:19.101Z,1.60
2023-07-28T19:02:21.598Z,2.05
2023-07-28T19:05:24.703Z,1.67
2023-07-28T19:08:27.048Z,1.50
2023-07-28T19:11:29.838Z,1.73
2023-07-28T19:14:32.231Z,1.50
2023-07-28T19:17:34.948Z,1.85
2023-07-28T19:20:37.291Z,2.08
2023-07-28T19:23:40.954Z,1.50
2023-07-28T19:26:43.341Z,1.90
2023-07-28T19:29:46.057Z,1.50
2023-07-28T19:32:48.446Z,1.80
2023-07-28T19:35:51.550Z,2.10
2023-07-28T19:38:53.895Z,1.77
2023-07-28T19:41:56.556Z,1.83
2023-07-28T19:44:59.063Z,1.80
2023-07-28T19:48:01.797Z,1.60
2023-07-28T19:51:05.148Z,1.80
2023-07-28T19:54:08.764Z,1.92
2023-07-28T19:57:11.164Z,1.27
2023-07-28T20:00:13.968Z,2.00
2023-07-28T20:03:16.695Z,1.70
2023-07-28T20:06:19.505Z,2.08
2023-07-28T20:09:28.023Z,2.05
2023-07-28T20:12:31.208Z,1.90
2023-07-28T20:15:34.204Z,1.70
2023-07-28T20:18:37.275Z,1.60
2023-07-28T20:21:39.968Z,1.37
2023-07-28T20:24:42.453Z,1.60
2023-07-28T20:27:46.052Z,2.10
2023-07-28T20:30:48.673Z,2.00
2023-07-28T20:33:52.241Z,1.75
2023-07-28T20:36:54.904Z,1.92
2023-07-28T20:39:57.677Z,1.75
2023-07-28T20:43:00.253Z,1.97
2023-07-28T20:46:03.185Z,1.83
2023-07-28T20:49:05.996Z,1.45
2023-07-28T20:52:09.924Z,1.70
2023-07-28T20:55:12.428Z,1.95
2023-07-28T20:58:15.156Z,1.73
2023-07-28T21:01:17.682Z,1.67
2023-07-28T21:04:20.447Z,1.90
2023-07-28T21:07:22.800Z,2.22
2023-07-28T21:10:26.141Z,1.65
2023-07-28T21:13:28.725Z,1.90
2023-07-28T21:16:31.610Z,2.10
2023-07-28T21:19:34.413Z,2.10
2023-07-28T21:22:37.294Z,1.95
2023-07-28T21:25:41.399Z,2.00
2023-07-28T21:28:44.326Z,1.77
2023-07-28T21:31:46.836Z,2.00
2023-07-28T21:34:49.535Z,1.73
2023-07-28T21:37:52.126Z,2.35
2023-07-28T21:40:54.852Z,2.22
2023-07-28T21:43:59.249Z,2.17
2023-07-28T21:47:02.046Z,1.93
2023-07-28T21:50:06.697Z,2.15
2023-07-28T21:53:09.526Z,2.00
2023-07-28T21:56:12.041Z,2.03
2023-07-28T21:59:15.191Z,1.90
2023-07-28T22:02:17.869Z,1.90
2023-07-28T22:05:20.714Z,1.77
2023-07-28T22:08:23.146Z,1.80
2023-07-28T22:11:25.952Z,2.17
2023-07-28T22:14:28.591Z,1.80
2023-07-28T22:17:32.306Z,2.00
2023-07-28T22:20:42.752Z,2.22
2023-07-28T22:23:45.549Z,1.92
2023-07-28T22:26:48.091Z,1.95
2023-07-28T22:29:53.155Z,1.90
2023-07-28T22:32:55.717Z,2.43
2023-07-28T22:35:58.639Z,2.12
2023-07-28T22:39:02.749Z,1.90
2023-07-28T22:42:06.000Z,1.85
2023-07-28T22:45:08.823Z,2.30
2023-07-28T22:48:11.694Z,2.10
2023-07-28T22:51:15.396Z,1.95
2023-07-28T22:54:18.185Z,2.20
2023-07-28T22:57:20.819Z,1.95
2023-07-28T23:00:28.327Z,2.30
2023-07-28T23:03:30.832Z,1.90
2023-07-28T23:06:34.153Z,2.22
2023-07-28T23:09:38.522Z,2.03
2023-07-28T23:12:41.243Z,2.12
2023-07-28T23:15:43.903Z,1.60
2023-07-28T23:18:46.760Z,2.10
2023-07-28T23:21:49.209Z,1.83
2023-07-28T23:24:51.944Z,1.80
2023-07-28T23:27:54.500Z,1.80
2023-07-28T23:31:19.074Z,2.17
2023-07-28T23:34:21.624Z,1.80
2023-07-28T23:37:24.293Z,2.20
2023-07-28T23:40:26.836Z,1.80
2023-07-28T23:43:29.583Z,2.30
2023-07-28T23:46:32.856Z,2.07
2023-07-28T23:49:35.941Z,2.30
2023-07-28T23:52:38.946Z,2.58
2023-07-28T23:55:41.586Z,2.22
2023-07-28T23:58:44.001Z,1.90
